Time;durP1;ratioP1;P1;durP2;ratioP2;P2;SDS_P1;SDS_P2;PMS_P1;PMS_P2;Temp;Humidity;BMP_temperature;BMP_pressure;BME280_temperature;BME280_humidity;BME280_pressure;Samples;Min_cycle;Max_cycle;Signal;HPM_P1;HPM_P2
2023/05/04 00:00:39;;;;;;;0.47;0.47;;;8.00;99.90;;;;;;5025331;28;20520;-76
2023/05/04 00:03:06;;;;;;;1.40;0.60;;;8.10;97.30;;;;;;5022168;28;20500;-75
2023/05/04 00:05:33;;;;;;;1.30;0.45;;;8.10;13.30;;;;;;5026177;28;20867;-75
2023/05/04 00:07:59;;;;;;;0.60;0.52;;;8.00;1.00;;;;;;5026262;28;20507;-76
2023/05/04 00:10:26;;;;;;;0.60;0.60;;;8.00;62.00;;;;;;5025264;28;20481;-76
2023/05/04 00:12:53;;;;;;;0.50;0.50;;;7.90;99.90;;;;;;5027156;28;20434;-75
2023/05/04 00:15:20;;;;;;;0.50;0.50;;;7.90;99.90;;;;;;5025611;28;20436;-75
2023/05/04 00:17:47;;;;;;;0.30;0.30;;;7.90;99.90;;;;;;5025826;28;20438;-75
2023/05/04 00:20:14;;;;;;;0.50;0.40;;;7.90;99.90;;;;;;5024485;28;20443;-76
2023/05/04 00:22:40;;;;;;;0.50;0.50;;;7.80;99.90;;;;;;5023473;28;20445;-75
2023/05/04 00:25:07;;;;;;;0.55;0.55;;;7.80;99.90;;;;;;5026033;28;21139;-75
2023/05/04 00:27:34;;;;;;;1.50;0.63;;;7.70;99.90;;;;;;5019908;28;20921;-75
2023/05/04 00:30:01;;;;;;;0.98;0.40;;;7.70;99.90;;;;;;5013055;28;20438;-76
2023/05/04 00:32:29;;;;;;;0.50;0.50;;;7.70;99.90;;;;;;5021432;28;20438;-75
2023/05/04 00:34:56;;;;;;;0.40;0.40;;;7.70;99.90;;;;;;5025126;28;20518;-76
2023/05/04 00:37:25;;;;;;;3.90;0.70;;;7.70;99.90;;;;;;5023938;28;20441;-76
2023/05/04 00:39:52;;;;;;;0.70;0.70;;;7.70;99.90;;;;;;5026336;28;20435;-75
2023/05/04 00:42:19;;;;;;;0.32;0.32;;;7.70;99.90;;;;;;5017482;28;20438;-75
2023/05/04 00:44:45;;;;;;;0.82;0.82;;;7.80;99.90;;;;;;5020632;28;20441;-75
2023/05/04 00:47:12;;;;;;;0.40;0.40;;;7.80;99.90;;;;;;5023624;28;20477;-75
2023/05/04 00:49:39;;;;;;;0.50;0.50;;;7.70;99.90;;;;;;5017658;28;20642;-75
2023/05/04 00:52:07;;;;;;;1.10;1.00;;;7.70;99.90;;;;;;5020494;28;20438;-75
2023/05/04 00:54:34;;;;;;;1.20;1.10;;;7.50;99.90;;;;;;5023034;28;20439;-75
2023/05/04 00:57:02;;;;;;;2.20;0.70;;;7.60;99.90;;;;;;5021849;28;20431;-75
2023/05/04 00:59:28;;;;;;;3.30;0.63;;;7.60;99.90;;;;;;5029603;28;20439;-75
2023/05/04 01:01:55;;;;;;;1.40;0.43;;;7.50;99.90;;;;;;5022714;28;20718;-75
2023/05/04 01:04:22;;;;;;;1.88;0.95;;;7.50;99.90;;;;;;5020460;28;21009;-75
2023/05/04 01:07:27;;;;;;;0.93;0.90;;;7.40;99.90;;;;;;5014531;28;20467;-75
2023/05/04 01:10:14;;;;;;;1.20;0.50;;;7.40;99.90;;;;;;4949338;28;20471;-75
2023/05/04 01:12:47;;;;;;;0.80;0.80;;;7.40;1.00;;;;;;4961168;28;20435;-76
2023/05/04 01:15:15;;;;;;;0.50;0.40;;;7.30;1.00;;;;;;4962546;28;20495;-76
2023/05/04 01:17:41;;;;;;;2.20;0.80;;;7.30;1.00;;;;;;4960974;28;20441;-76
2023/05/04 01:20:09;;;;;;;0.40;0.40;;;7.20;1.00;;;;;;4947108;28;20447;-75
2023/05/04 01:22:37;;;;;;;0.30;0.30;;;7.20;1.00;;;;;;4960121;28;20979;-76
2023/05/04 01:25:06;;;;;;;0.25;0.25;;;7.20;1.00;;;;;;4962648;28;20435;-75
2023/05/04 01:27:41;;;;;;;0.68;0.68;;;7.10;1.00;;;;;;4964530;28;20444;-75
2023/05/04 01:30:43;;;;;;;0.47;0.47;;;7.10;1.00;;;;;;4947755;28;20436;-76
2023/05/04 01:33:11;;;;;;;0.75;0.70;;;7.10;1.00;;;;;;4903809;29;20559;-75
2023/05/04 01:35:41;;;;;;;0.60;0.50;;;7.10;1.00;;;;;;4904893;29;20444;-76
2023/05/04 01:38:08;;;;;;;3.90;0.90;;;7.10;1.00;;;;;;4899645;29;20890;-75
2023/05/04 01:40:34;;;;;;;0.40;0.40;;;7.20;1.00;;;;;;4927944;28;20850;-76
2023/05/04 01:43:01;;;;;;;0.30;0.30;;;7.20;99.90;;;;;;4955146;28;20977;-76
2023/05/04 01:45:28;;;;;;;0.23;0.23;;;7.20;99.90;;;;;;4947852;28;21077;-75
2023/05/04 01:47:55;;;;;;;0.70;0.70;;;7.20;99.90;;;;;;4962692;28;20815;-76
2023/05/04 01:50:23;;;;;;;0.70;0.52;;;7.10;99.90;;;;;;4960811;28;20470;-76
2023/05/04 01:52:50;;;;;;;0.50;0.50;;;7.10;99.90;;;;;;4957873;28;20438;-76
2023/05/04 01:55:17;;;;;;;0.20;0.20;;;7.10;99.90;;;;;;4963344;28;20454;-76
2023/05/04 01:57:46;;;;;;;0.75;0.75;;;7.00;99.90;;;;;;4963049;28;20487;-76
2023/05/04 02:00:14;;;;;;;0.55;0.55;;;7.00;99.90;;;;;;4964058;28;20451;-76
2023/05/04 02:02:41;;;;;;;0.40;0.40;;;7.00;1.00;;;;;;4947778;28;20440;-75
2023/05/04 02:05:08;;;;;;;0.77;0.50;;;6.90;1.00;;;;;;4944783;28;20894;-75
2023/05/04 02:07:35;;;;;;;0.70;0.70;;;6.80;1.00;;;;;;4955607;28;20479;-75
2023/05/04 02:10:06;;;;;;;0.50;0.50;;;6.80;1.00;;;;;;5036524;28;20505;-75
2023/05/04 02:12:33;;;;;;;3.92;0.85;;;6.80;1.00;;;;;;5025132;28;20435;-76
2023/05/04 02:14:59;;;;;;;0.60;0.60;;;6.80;1.00;;;;;;5013814;28;20812;-76
2023/05/04 02:17:26;;;;;;;0.38;0.38;;;6.80;1.00;;;;;;5020459;28;20427;-76
2023/05/04 02:19:53;;;;;;;0.40;0.40;;;6.70;1.00;;;;;;5014112;28;20438;-77
2023/05/04 02:22:20;;;;;;;0.55;0.55;;;6.70;99.90;;;;;;5016421;28;20919;-75
2023/05/04 02:24:46;;;;;;;0.40;0.40;;;6.70;99.90;;;;;;5017798;28;20485;-76
2023/05/04 02:27:13;;;;;;;0.30;0.30;;;6.80;96.50;;;;;;5019903;28;20433;-75
2023/05/04 02:29:40;;;;;;;0.30;0.30;;;6.90;8.30;;;;;;5019324;28;20493;-75
2023/05/04 02:32:06;;;;;;;2.10;0.70;;;6.90;1.00;;;;;;5025687;28;20916;-75
2023/05/04 02:34:34;;;;;;;0.70;0.40;;;6.80;1.00;;;;;;5020502;28;20475;-75
2023/05/04 02:37:00;;;;;;;0.80;0.80;;;6.80;1.00;;;;;;5020612;28;20443;-75
2023/05/04 02:39:27;;;;;;;0.50;0.50;;;6.80;1.00;;;;;;5022224;28;20442;-75
2023/05/04 02:41:56;;;;;;;0.50;0.50;;;6.70;16.50;;;;;;5024958;28;20497;-74
2023/05/04 02:44:23;;;;;;;0.60;0.60;;;6.70;47.50;;;;;;5023190;28;20422;-75
2023/05/04 02:46:49;;;;;;;0.70;0.70;;;6.60;99.90;;;;;;5020051;28;21016;-74
2023/05/04 02:49:16;;;;;;;0.40;0.40;;;6.60;99.90;;;;;;5017466;28;20435;-75
2023/05/04 02:51:43;;;;;;;1.27;0.70;;;6.50;1.00;;;;;;5014643;28;20439;-75
2023/05/04 02:54:09;;;;;;;0.40;0.40;;;6.40;1.00;;;;;;5016551;28;20434;-76
2023/05/04 02:56:36;;;;;;;1.35;1.25;;;6.40;1.00;;;;;;5019680;28;20439;-75
2023/05/04 02:59:03;;;;;;;0.30;0.30;;;6.40;1.00;;;;;;5034852;28;20438;-75
2023/05/04 03:01:30;;;;;;;0.55;0.52;;;6.40;15.50;;;;;;5021001;28;20463;-75
2023/05/04 03:04:00;;;;;;;0.52;0.52;;;6.50;1.00;;;;;;5015931;28;20434;-75
2023/05/04 03:06:27;;;;;;;0.68;0.68;;;6.50;1.00;;;;;;5018271;28;20778;-75
2023/05/04 03:08:56;;;;;;;2.20;0.70;;;6.50;1.00;;;;;;5015733;28;20439;-75
2023/05/04 03:11:23;;;;;;;0.80;0.80;;;6.50;1.00;;;;;;5023869;28;20438;-74
2023/05/04 03:13:50;;;;;;;0.70;0.70;;;6.60;1.00;;;;;;5023226;28;20441;-75
2023/05/04 03:16:16;;;;;;;3.40;0.75;;;6.60;99.90;;;;;;5020472;28;20518;-75
2023/05/04 03:18:43;;;;;;;0.50;0.50;;;6.60;99.90;;;;;;5017510;28;20879;-75
2023/05/04 03:21:10;;;;;;;0.20;0.20;;;6.60;99.90;;;;;;5018983;28;20436;-76
2023/05/04 03:23:37;;;;;;;0.50;0.50;;;6.60;99.90;;;;;;5019196;28;20439;-75
2023/05/04 03:26:04;;;;;;;0.50;0.50;;;6.60;99.90;;;;;;5021441;28;20435;-75
2023/05/04 03:28:30;;;;;;;3.30;1.10;;;6.70;99.90;;;;;;5017722;28;21241;-75
2023/05/04 03:30:57;;;;;;;0.40;0.40;;;6.70;99.90;;;;;;5024690;28;20435;-75
2023/05/04 03:33:24;;;;;;;0.57;0.57;;;6.70;99.90;;;;;;5013440;28;20430;-75
2023/05/04 03:35:50;;;;;;;2.13;0.83;;;6.80;99.90;;;;;;5013423;28;20434;-76
2023/05/04 03:38:17;;;;;;;0.50;0.50;;;6.80;75.20;;;;;;5018284;28;20521;-75
2023/05/04 03:40:44;;;;;;;0.47;0.47;;;6.80;26.30;;;;;;5019180;28;20496;-75
2023/05/04 03:43:10;;;;;;;0.90;0.60;;;6.80;72.50;;;;;;5023281;28;20451;-76
2023/05/04 03:45:38;;;;;;;1.10;1.05;;;6.80;1.00;;;;;;5020061;28;20439;-75
2023/05/04 03:48:05;;;;;;;0.82;0.82;;;6.90;1.00;;;;;;5021879;28;20938;-74
2023/05/04 03:50:32;;;;;;;0.90;0.90;;;6.90;1.00;;;;;;5015973;28;20427;-75
2023/05/04 03:52:58;;;;;;;0.50;0.50;;;7.00;1.00;;;;;;5012989;28;20477;-74
2023/05/04 03:55:25;;;;;;;0.63;0.63;;;6.90;1.00;;;;;;5013505;28;20436;-75
2023/05/04 03:57:52;;;;;;;1.40;1.05;;;7.00;1.00;;;;;;5024432;28;20431;-75
2023/05/04 04:00:19;;;;;;;0.60;0.60;;;7.00;1.00;;;;;;5019236;28;20887;-75
2023/05/04 04:02:46;;;;;;;1.30;1.00;;;7.00;1.00;;;;;;5014029;28;20422;-75
2023/05/04 04:05:13;;;;;;;0.40;0.40;;;7.00;1.00;;;;;;5014678;28;20428;-75
2023/05/04 04:07:40;;;;;;;0.60;0.60;;;7.00;1.00;;;;;;5014653;28;20473;-75
2023/05/04 04:10:07;;;;;;;2.23;0.60;;;7.00;1.00;;;;;;5012153;28;20855;-75
2023/05/04 04:12:34;;;;;;;1.17;1.08;;;7.10;1.00;;;;;;5013587;28;20438;-75
2023/05/04 04:15:01;;;;;;;0.50;0.50;;;7.10;1.00;;;;;;5013283;28;20570;-74
2023/05/04 04:17:27;;;;;;;0.43;0.43;;;7.10;1.00;;;;;;5015156;28;20427;-75
2023/05/04 04:19:54;;;;;;;0.57;0.57;;;7.20;99.90;;;;;;5015294;28;20481;-74
2023/05/04 04:22:21;;;;;;;0.40;0.40;;;7.20;99.90;;;;;;5018443;28;20488;-75
2023/05/04 04:24:48;;;;;;;0.80;0.55;;;7.30;99.90;;;;;;5022183;28;20431;-75
2023/05/04 04:27:14;;;;;;;0.63;0.63;;;7.30;99.90;;;;;;5013739;28;20855;-75
2023/05/04 04:29:41;;;;;;;3.28;0.60;;;7.40;99.90;;;;;;5021193;28;20441;-75
2023/05/04 04:32:08;;;;;;;0.50;0.50;;;7.40;99.90;;;;;;5013730;28;20428;-75
2023/05/04 04:34:37;;;;;;;0.70;0.70;;;7.50;99.90;;;;;;5023667;28;20526;-75
2023/05/04 04:37:04;;;;;;;0.53;0.53;;;7.60;99.90;;;;;;5027622;28;20427;-75
2023/05/04 04:39:31;;;;;;;0.60;0.60;;;7.60;99.90;;;;;;5024255;28;20447;-75
2023/05/04 04:41:58;;;;;;;0.68;0.68;;;7.60;99.90;;;;;;5025775;28;20470;-75
2023/05/04 04:44:28;;;;;;;0.60;0.60;;;7.70;99.90;;;;;;5018900;28;20441;-76
2023/05/04 04:46:55;;;;;;;0.65;0.57;;;7.70;58.80;;;;;;5022216;28;21045;-75
2023/05/04 04:49:22;;;;;;;0.73;0.73;;;7.80;5.70;;;;;;5021489;28;20525;-76
2023/05/04 04:51:49;;;;;;;0.60;0.50;;;7.90;1.00;;;;;;5026303;28;20493;-76
2023/05/04 04:54:15;;;;;;;0.68;0.68;;;7.90;3.60;;;;;;5026030;28;20482;-75
2023/05/04 04:56:43;;;;;;;0.70;0.70;;;8.00;1.00;;;;;;5024914;28;21073;-76
2023/05/04 04:59:11;;;;;;;0.50;0.50;;;8.00;1.00;;;;;;5016123;28;20446;-75
2023/05/04 05:01:40;;;;;;;0.45;0.45;;;8.10;1.00;;;;;;5024398;28;20523;-75
2023/05/04 05:04:07;;;;;;;0.60;0.60;;;8.20;1.00;;;;;;5018154;28;20447;-75
2023/05/04 05:06:35;;;;;;;0.50;0.43;;;8.20;1.00;;;;;;5026150;28;20511;-75
2023/05/04 05:09:02;;;;;;;0.50;0.50;;;8.30;1.00;;;;;;5021774;28;20437;-75
2023/05/04 05:11:29;;;;;;;0.35;0.35;;;8.30;1.00;;;;;;5027176;28;20431;-76
2023/05/04 05:13:58;;;;;;;0.52;0.52;;;8.40;1.00;;;;;;5021880;28;21105;-75
2023/05/04 05:16:25;;;;;;;2.45;0.90;;;8.50;1.00;;;;;;5023895;28;20439;-76
2023/05/04 05:18:55;;;;;;;1.02;1.02;;;8.50;1.00;;;;;;5023076;28;20529;-75
2023/05/04 05:21:23;;;;;;;1.20;0.93;;;8.60;1.00;;;;;;5023523;28;20443;-77
2023/05/04 05:23:51;;;;;;;2.85;1.00;;;8.70;1.00;;;;;;5024650;28;20920;-77
2023/05/04 05:26:18;;;;;;;1.33;1.00;;;8.90;1.00;;;;;;5019574;28;20635;-77
2023/05/04 05:28:46;;;;;;;0.80;0.80;;;9.10;99.90;;;;;;5026082;28;20428;-77
2023/05/04 05:31:13;;;;;;;0.73;0.70;;;9.40;99.90;;;;;;5025564;28;20488;-77
2023/05/04 05:33:41;;;;;;;0.70;0.70;;;9.50;99.90;;;;;;5021597;28;20481;-77
2023/05/04 05:36:09;;;;;;;1.48;1.33;;;9.60;99.90;;;;;;5020946;28;20435;-77
2023/05/04 05:38:36;;;;;;;0.90;0.80;;;9.60;99.90;;;;;;5019415;28;20423;-77
2023/05/04 05:41:04;;;;;;;0.90;0.90;;;9.60;99.90;;;;;;5022044;28;20569;-77
2023/05/04 05:43:32;;;;;;;0.80;0.80;;;9.80;99.90;;;;;;5026919;28;20430;-76
2023/05/04 05:45:59;;;;;;;0.70;0.70;;;10.10;99.90;;;;;;5028134;28;20442;-77
2023/05/04 05:48:26;;;;;;;1.42;1.30;;;10.30;99.90;;;;;;5021365;28;21009;-77
2023/05/04 05:50:52;;;;;;;0.77;0.77;;;10.50;99.90;;;;;;5017154;28;20535;-76
2023/05/04 05:53:19;;;;;;;0.70;0.70;;;10.70;99.90;;;;;;5021992;28;20434;-76
2023/05/04 05:55:47;;;;;;;1.02;0.73;;;11.00;99.90;;;;;;5020648;28;20796;-76
2023/05/04 05:58:13;;;;;;;1.73;1.00;;;11.40;99.90;;;;;;5017118;28;20968;-77
2023/05/04 06:00:40;;;;;;;0.47;0.47;;;11.70;99.90;;;;;;5021672;28;20442;-77
2023/05/04 06:03:07;;;;;;;1.90;0.70;;;12.10;99.90;;;;;;5024781;28;20437;-77
2023/05/04 06:05:34;;;;;;;0.70;0.70;;;12.70;99.90;;;;;;5025452;28;20434;-77
2023/05/04 06:08:00;;;;;;;0.80;0.80;;;13.00;99.90;;;;;;5017844;28;20435;-76
2023/05/04 06:10:27;;;;;;;0.50;0.50;;;13.10;99.90;;;;;;5014710;28;20523;-79
2023/05/04 06:12:54;;;;;;;0.60;0.60;;;13.20;99.90;;;;;;5021702;28;20549;-77
2023/05/04 06:15:21;;;;;;;4.68;0.70;;;13.00;99.90;;;;;;5025673;28;20787;-77
2023/05/04 06:17:48;;;;;;;0.90;0.90;;;12.70;99.90;;;;;;5019170;28;20536;-77
2023/05/04 06:20:15;;;;;;;1.17;0.93;;;12.70;99.90;;;;;;5021698;28;20442;-77
2023/05/04 06:22:42;;;;;;;1.73;0.82;;;12.50;99.90;;;;;;5011034;28;20441;-77
2023/05/04 06:25:12;;;;;;;1.20;0.80;;;12.40;99.90;;;;;;5023788;28;20929;-77
2023/05/04 06:27:38;;;;;;;0.90;0.80;;;12.70;99.90;;;;;;5021337;28;20518;-78
2023/05/04 06:30:06;;;;;;;0.93;0.93;;;13.20;99.90;;;;;;5027699;28;20433;-75
2023/05/04 06:32:34;;;;;;;0.65;0.65;;;14.10;99.90;;;;;;5011072;28;20974;-75
2023/05/04 06:35:01;;;;;;;3.60;1.15;;;14.50;99.90;;;;;;5015939;28;20874;-74
2023/05/04 06:37:28;;;;;;;1.02;0.93;;;14.20;99.90;;;;;;5022628;28;20786;-75
2023/05/04 06:39:58;;;;;;;0.82;0.82;;;13.60;99.90;;;;;;5018703;28;20435;-74
2023/05/04 06:42:29;;;;;;;0.80;0.80;;;13.30;99.90;;;;;;5016977;28;20462;-75
2023/05/04 06:44:57;;;;;;;1.50;0.80;;;13.30;99.90;;;;;;5018996;28;20494;-76
2023/05/04 06:47:24;;;;;;;0.90;0.90;;;13.50;99.90;;;;;;5024057;28;20435;-75
2023/05/04 06:49:51;;;;;;;1.15;1.08;;;14.10;99.90;;;;;;5020834;28;20431;-74
2023/05/04 06:52:18;;;;;;;0.70;0.70;;;14.50;99.90;;;;;;5023899;28;20553;-75
2023/05/04 06:54:47;;;;;;;0.95;0.70;;;14.80;99.90;;;;;;5021797;28;20441;-75
2023/05/04 06:57:13;;;;;;;3.00;1.00;;;14.90;99.90;;;;;;5025555;28;20557;-75
2023/05/04 06:59:40;;;;;;;0.90;0.80;;;14.70;99.90;;;;;;5016081;28;20780;-76
2023/05/04 07:02:07;;;;;;;1.10;0.70;;;14.10;99.90;;;;;;5013888;28;20435;-76
2023/05/04 07:04:37;;;;;;;0.90;0.90;;;14.20;99.90;;;;;;5014786;28;20643;-75
2023/05/04 07:07:04;;;;;;;0.80;0.80;;;14.80;99.90;;;;;;5015095;28;20434;-75
2023/05/04 07:09:30;;;;;;;0.63;0.63;;;15.50;99.90;;;;;;5020370;28;20640;-76
2023/05/04 07:11:57;;;;;;;1.00;0.95;;;16.30;99.90;;;;;;5016037;28;20431;-76
2023/05/04 07:14:27;;;;;;;1.20;0.88;;;16.80;99.90;;;;;;5011355;28;21695;-76
2023/05/04 07:17:01;;;;;;;0.90;0.90;;;17.20;99.90;;;;;;5011077;28;20446;-76
2023/05/04 07:19:27;;;;;;;1.13;1.05;;;17.50;99.90;;;;;;5013387;28;20441;-77
2023/05/04 07:21:55;;;;;;;0.90;0.90;;;17.90;99.90;;;;;;5006778;28;20526;-76
2023/05/04 07:24:22;;;;;;;1.50;1.20;;;18.00;99.90;;;;;;5010259;28;20442;-77
2023/05/04 07:26:48;;;;;;;1.60;1.25;;;17.90;99.90;;;;;;5024237;28;20427;-76
2023/05/04 07:29:15;;;;;;;1.05;1.05;;;17.80;99.90;;;;;;5018926;28;20435;-76
2023/05/04 07:31:42;;;;;;;1.53;1.00;;;18.10;99.90;;;;;;5023485;28;20916;-77
2023/05/04 07:34:12;;;;;;;0.70;0.70;;;18.10;99.90;;;;;;5016249;28;21008;-77
2023/05/04 07:36:41;;;;;;;1.08;1.08;;;17.90;99.90;;;;;;5011676;28;20435;-78
2023/05/04 07:39:09;;;;;;;1.15;0.90;;;17.30;99.90;;;;;;5012622;28;20438;-76
2023/05/04 07:41:36;;;;;;;0.68;0.68;;;16.60;99.90;;;;;;5016124;28;20438;-76
2023/05/04 07:44:04;;;;;;;1.10;1.00;;;16.90;99.90;;;;;;5017714;28;20517;-77
2023/05/04 07:46:31;;;;;;;0.80;0.80;;;17.10;99.90;;;;;;5015541;28;20925;-78
2023/05/04 07:48:58;;;;;;;1.55;0.85;;;17.20;99.90;;;;;;5025459;28;20493;-76
2023/05/04 07:51:24;;;;;;;1.00;1.00;;;17.30;99.90;;;;;;5025363;28;20431;-77
2023/05/04 07:53:51;;;;;;;1.27;1.05;;;17.70;99.90;;;;;;5020907;28;20829;-77
2023/05/04 07:56:18;;;;;;;1.20;0.90;;;18.00;99.90;;;;;;5020297;28;20437;-77
2023/05/04 07:58:46;;;;;;;0.95;0.90;;;17.80;99.90;;;;;;5019787;28;20441;-78
2023/05/04 08:01:13;;;;;;;0.70;0.70;;;17.40;99.90;;;;;;5016892;28;20435;-78
2023/05/04 08:03:40;;;;;;;0.93;0.93;;;18.20;99.90;;;;;;5016603;28;21013;-78
2023/05/04 08:06:07;;;;;;;1.35;1.08;;;18.70;99.90;;;;;;5020645;28;20430;-79
2023/05/04 08:08:33;;;;;;;1.37;1.00;;;18.70;99.90;;;;;;5013370;28;20477;-78
2023/05/04 08:11:00;;;;;;;0.85;0.85;;;18.90;99.90;;;;;;5021224;28;20439;-78
2023/05/04 08:13:45;;;;;;;0.98;0.98;;;19.10;99.90;;;;;;5019137;28;20432;-78
2023/05/04 08:16:12;;;;;;;1.02;1.02;;;18.70;99.90;;;;;;5015334;28;20441;-79
2023/05/04 08:18:40;;;;;;;1.60;1.20;;;19.20;99.90;;;;;;5026044;28;20439;-77
2023/05/04 08:21:07;;;;;;;1.02;1.02;;;18.70;99.90;;;;;;5039610;28;20525;-77
2023/05/04 08:23:36;;;;;;;3.35;1.38;;;18.40;99.90;;;;;;5018583;28;21111;-79
2023/05/04 08:26:03;;;;;;;1.40;1.40;;;18.60;99.90;;;;;;5014799;28;20433;-78
2023/05/04 08:28:34;;;;;;;2.42;1.40;;;18.30;99.90;;;;;;5025120;28;21006;-78
2023/05/04 08:31:01;;;;;;;1.60;1.20;;;18.10;99.90;;;;;;5022394;28;20477;-78
2023/05/04 08:33:29;;;;;;;1.60;1.42;;;18.80;99.90;;;;;;5024624;28;20434;-78
2023/05/04 08:35:59;;;;;;;0.97;0.97;;;19.10;99.90;;;;;;5026484;28;20438;-78
2023/05/04 08:38:25;;;;;;;2.05;1.10;;;19.40;99.90;;;;;;5027337;28;20434;-78
2023/05/04 08:40:54;;;;;;;1.58;1.25;;;19.70;99.90;;;;;;5022530;28;20438;-78
2023/05/04 08:43:21;;;;;;;1.10;1.00;;;19.30;99.90;;;;;;5023026;28;20469;-79
2023/05/04 08:45:51;;;;;;;1.53;1.43;;;19.00;99.90;;;;;;5013736;28;20444;-79
2023/05/04 08:48:17;;;;;;;1.00;1.00;;;18.90;99.90;;;;;;5027573;28;20431;-78
2023/05/04 08:50:45;;;;;;;1.20;1.10;;;18.70;99.90;;;;;;5024077;28;20530;-79
2023/05/04 08:53:13;;;;;;;1.80;1.70;;;19.10;99.90;;;;;;5025798;28;20434;-79
2023/05/04 08:55:41;;;;;;;1.50;1.40;;;19.70;99.90;;;;;;5020911;28;20975;-80
2023/05/04 08:58:11;;;;;;;1.40;1.30;;;20.10;99.90;;;;;;5018210;28;20439;-79
2023/05/04 09:00:44;;;;;;;1.13;1.13;;;20.20;99.90;;;;;;5024930;28;20451;-78
2023/05/04 09:03:12;;;;;;;1.23;1.15;;;20.10;99.90;;;;;;5019547;28;20695;-78
2023/05/04 09:05:41;;;;;;;1.45;1.25;;;20.10;99.90;;;;;;5010429;28;20440;-78
2023/05/04 09:08:08;;;;;;;1.15;1.15;;;19.50;99.90;;;;;;5016630;28;20956;-78
2023/05/04 09:10:35;;;;;;;1.42;1.33;;;19.80;99.90;;;;;;5019609;28;20500;-79
2023/05/04 09:13:02;;;;;;;1.30;1.20;;;20.10;99.90;;;;;;5025750;28;20745;-78
2023/05/04 09:15:30;;;;;;;1.23;1.13;;;20.30;99.90;;;;;;5016720;28;20429;-78
2023/05/04 09:18:08;;;;;;;1.90;1.17;;;20.50;99.90;;;;;;5024064;28;20459;-78
2023/05/04 09:20:43;;;;;;;1.00;1.00;;;20.40;99.90;;;;;;5020854;28;20435;-78
2023/05/04 09:23:11;;;;;;;2.00;1.65;;;20.40;99.90;;;;;;5027077;28;20510;-79
2023/05/04 09:25:51;;;;;;;1.00;1.00;;;20.60;99.90;;;;;;5032156;28;20529;-78
2023/05/04 09:28:20;;;;;;;1.38;1.23;;;20.90;99.90;;;;;;5029621;28;20441;-78
2023/05/04 09:30:50;;;;;;;3.08;1.40;;;20.80;99.90;;;;;;5028794;28;20442;-75
2023/05/04 09:33:26;;;;;;;1.55;1.13;;;21.50;99.90;;;;;;5025275;28;20498;-79
2023/05/04 09:35:52;;;;;;;1.45;1.30;;;21.30;99.90;;;;;;5014185;28;20457;-79
2023/05/04 09:38:25;;;;;;;0.82;0.82;;;20.90;99.90;;;;;;5014083;28;20431;-78
2023/05/04 09:40:52;;;;;;;1.10;1.10;;;20.70;99.90;;;;;;5019719;28;20451;-78
2023/05/04 09:43:19;;;;;;;1.08;0.98;;;20.50;99.90;;;;;;5032908;28;20431;-80
2023/05/04 09:45:46;;;;;;;1.50;1.20;;;21.10;99.90;;;;;;5024612;28;20447;-78
2023/05/04 09:48:25;;;;;;;0.80;0.80;;;21.60;99.90;;;;;;5019608;28;20931;-79
2023/05/04 09:50:56;;;;;;;1.10;1.00;;;21.90;99.90;;;;;;5021309;28;20779;-73
2023/05/04 09:53:27;;;;;;;0.95;0.95;;;22.00;99.90;;;;;;5022075;28;20498;-73
2023/05/04 09:56:02;;;;;;;1.60;1.50;;;22.00;99.90;;;;;;5022843;28;20675;-73
2023/05/04 09:58:33;;;;;;;1.10;1.00;;;21.40;99.90;;;;;;5012234;28;21036;-73
2023/05/04 10:01:00;;;;;;;1.30;1.10;;;21.20;99.90;;;;;;5014213;28;20471;-74
2023/05/04 10:03:28;;;;;;;1.25;0.85;;;21.20;99.90;;;;;;5015149;28;20462;-73
2023/05/04 10:06:01;;;;;;;1.73;1.33;;;21.40;99.90;;;;;;5018117;28;20522;-73
2023/05/04 10:08:28;;;;;;;1.20;1.10;;;21.10;99.90;;;;;;5021259;28;20485;-73
2023/05/04 10:10:56;;;;;;;1.00;1.00;;;21.30;99.90;;;;;;5019540;28;20954;-74
2023/05/04 10:13:23;;;;;;;0.77;0.77;;;21.50;99.90;;;;;;5016515;28;20437;-73
2023/05/04 10:15:58;;;;;;;1.50;1.20;;;22.20;99.90;;;;;;5018376;28;20485;-75
2023/05/04 10:18:51;;;;;;;1.85;1.60;;;22.40;99.90;;;;;;5020687;28;20431;-74
2023/05/04 10:21:52;;;;;;;1.33;1.23;;;22.40;99.90;;;;;;5020378;28;20526;-73
2023/05/04 10:24:53;;;;;;;1.17;1.17;;;21.90;99.90;;;;;;5015691;28;20434;-73
2023/05/04 10:27:46;;;;;;;1.08;1.08;;;22.30;99.90;;;;;;5032663;28;20432;-72
2023/05/04 10:30:15;;;;;;;1.30;1.20;;;22.00;99.90;;;;;;5008990;28;20513;-74
2023/05/04 10:32:43;;;;;;;1.95;1.42;;;22.30;99.90;;;;;;5022857;28;20936;-74
2023/05/04 10:35:10;;;;;;;1.25;1.15;;;22.10;99.90;;;;;;5022088;28;20481;-75
2023/05/04 10:37:37;;;;;;;1.27;1.23;;;22.20;99.90;;;;;;5018751;28;20450;-74
2023/05/04 10:40:04;;;;;;;1.42;1.40;;;22.60;99.90;;;;;;5012935;28;20814;-75
2023/05/04 10:42:41;;;;;;;1.30;1.25;;;22.00;99.90;;;;;;5014695;28;20441;-75
2023/05/04 10:45:08;;;;;;;1.23;1.13;;;22.00;99.90;;;;;;5013888;28;20431;-75
2023/05/04 10:47:38;;;;;;;2.35;1.40;;;22.60;99.90;;;;;;5020670;28;20443;-75
2023/05/04 10:50:07;;;;;;;1.50;1.13;;;22.90;99.90;;;;;;5019300;28;20534;-75
2023/05/04 10:52:52;;;;;;;1.23;1.13;;;22.90;99.90;;;;;;5018683;28;20426;-75
2023/05/04 10:55:20;;;;;;;2.37;1.20;;;22.50;99.90;;;;;;5013499;28;21769;-74
2023/05/04 10:57:55;;;;;;;1.27;1.25;;;21.90;99.90;;;;;;5012944;28;20432;-74
2023/05/04 11:00:34;;;;;;;1.10;1.00;;;22.60;99.90;;;;;;5017383;28;20529;-74
2023/05/04 11:03:06;;;;;;;1.20;1.10;;;22.90;99.90;;;;;;4956526;28;20432;-73
2023/05/04 11:05:44;;;;;;;1.05;1.05;;;23.60;99.90;;;;;;5007255;28;20518;-73
2023/05/04 11:08:23;;;;;;;0.90;0.90;;;23.50;99.90;;;;;;5018999;28;20779;-74
2023/05/04 11:11:05;;;;;;;1.20;1.13;;;23.80;99.90;;;;;;5019431;28;20952;-72
2023/05/04 11:13:33;;;;;;;1.67;1.60;;;23.70;99.90;;;;;;5021483;28;20459;-73
2023/05/04 11:16:00;;;;;;;1.38;1.27;;;23.50;99.90;;;;;;5014169;28;20589;-73
2023/05/04 11:18:37;;;;;;;1.88;1.20;;;23.60;99.90;;;;;;5018248;28;20496;-73
2023/05/04 11:21:04;;;;;;;1.10;1.10;;;23.30;99.90;;;;;;5003395;28;20461;-73
2023/05/04 11:23:31;;;;;;;2.63;1.42;;;22.90;99.90;;;;;;5007841;28;20447;-74
2023/05/04 11:26:07;;;;;;;0.80;0.80;;;22.50;99.90;;;;;;5016337;28;20447;-73
2023/05/04 11:28:36;;;;;;;1.10;1.10;;;22.30;99.90;;;;;;5010355;28;20504;-74
2023/05/04 11:31:14;;;;;;;1.23;1.13;;;22.40;99.90;;;;;;5008942;28;20439;-73
2023/05/04 11:33:51;;;;;;;1.90;0.90;;;23.00;99.90;;;;;;5007252;28;20439;-74
2023/05/04 11:36:18;;;;;;;1.50;1.17;;;23.50;99.90;;;;;;5018078;28;20431;-75
2023/05/04 11:38:46;;;;;;;1.00;0.90;;;23.20;99.90;;;;;;5021619;28;20880;-74
2023/05/04 11:41:14;;;;;;;2.03;1.00;;;23.30;99.90;;;;;;5016883;28;20852;-74
2023/05/04 11:43:43;;;;;;;2.23;1.10;;;22.80;99.90;;;;;;5021462;28;20442;-74
2023/05/04 11:46:11;;;;;;;1.67;1.25;;;22.80;99.90;;;;;;5021413;28;20443;-74
2023/05/04 11:48:39;;;;;;;1.00;1.00;;;22.40;99.90;;;;;;5016737;28;20461;-72
2023/05/04 11:51:06;;;;;;;1.38;1.27;;;23.00;99.90;;;;;;5013275;28;20468;-73
2023/05/04 11:53:38;;;;;;;1.08;1.08;;;23.50;99.90;;;;;;5014913;28;20518;-73
2023/05/04 11:56:07;;;;;;;1.20;1.10;;;23.60;99.90;;;;;;5023464;28;20428;-72
2023/05/04 11:58:38;;;;;;;0.80;0.80;;;24.00;99.90;;;;;;5024251;28;20431;-73
2023/05/04 12:01:05;;;;;;;0.90;0.90;;;24.50;99.90;;;;;;5019636;28;20525;-73
2023/05/04 12:03:38;;;;;;;0.90;0.90;;;24.60;99.90;;;;;;5020788;28;20447;-73
2023/05/04 12:06:40;;;;;;;0.88;0.88;;;23.90;99.90;;;;;;5016601;28;20980;-73
2023/05/04 12:09:08;;;;;;;1.10;0.85;;;24.00;99.90;;;;;;5012252;28;21186;-73
2023/05/04 12:11:52;;;;;;;1.60;1.40;;;23.90;99.90;;;;;;5021189;28;20434;-73
2023/05/04 12:14:23;;;;;;;1.20;1.00;;;23.70;99.90;;;;;;5017501;28;20427;-73
2023/05/04 12:16:55;;;;;;;1.40;1.10;;;23.50;99.90;;;;;;5015889;28;20439;-72
2023/05/04 12:19:22;;;;;;;1.42;1.23;;;23.50;99.90;;;;;;5020040;28;20507;-72
2023/05/04 12:21:52;;;;;;;1.00;1.00;;;23.70;99.90;;;;;;5011253;28;20450;-74
2023/05/04 12:24:23;;;;;;;1.10;1.00;;;24.10;99.90;;;;;;5017068;28;20469;-74
2023/05/04 12:26:51;;;;;;;1.30;1.20;;;24.30;99.90;;;;;;5017180;28;20447;-75
2023/05/04 12:29:19;;;;;;;1.10;1.10;;;24.70;99.90;;;;;;5016844;28;20970;-74
2023/05/04 12:31:47;;;;;;;1.10;1.05;;;24.70;99.90;;;;;;5015439;28;20642;-74
2023/05/04 12:34:15;;;;;;;0.88;0.88;;;24.80;99.90;;;;;;5014351;28;20430;-73
2023/05/04 12:36:43;;;;;;;1.00;1.00;;;24.80;99.90;;;;;;5016070;28;20438;-71
2023/05/04 12:39:11;;;;;;;0.85;0.85;;;24.90;99.90;;;;;;5031341;28;20458;-72
2023/05/04 12:41:41;;;;;;;1.92;0.73;;;25.50;99.90;;;;;;5021314;28;20884;-73
2023/05/04 12:44:10;;;;;;;1.58;0.98;;;26.20;99.90;;;;;;5020068;28;20509;-73
2023/05/04 12:46:38;;;;;;;1.40;1.10;;;26.50;99.90;;;;;;5028464;28;20458;-72
2023/05/04 12:49:06;;;;;;;1.95;1.00;;;26.20;99.90;;;;;;5019573;28;20441;-73
2023/05/04 12:51:33;;;;;;;0.90;0.90;;;25.70;99.90;;;;;;5019821;28;20583;-72
2023/05/04 12:54:02;;;;;;;0.80;0.80;;;25.30;99.90;;;;;;5022632;28;20454;-72
2023/05/04 12:56:30;;;;;;;0.80;0.80;;;25.20;99.90;;;;;;5013484;28;20481;-72
2023/05/04 12:58:58;;;;;;;0.70;0.70;;;25.50;99.90;;;;;;5012502;28;20447;-72
2023/05/04 13:01:29;;;;;;;0.90;0.90;;;26.00;99.90;;;;;;5019638;28;20489;-72